sensor_id;sensor_type;location;lat;lon;timestamp;P1;durP1;ratioP1;P2;durP2;ratioP2
76023;SDS011;64719;52.124;6.226;2023-06-10T00:01:09;5.13;;;4.13;;
76023;SDS011;64719;52.124;6.226;2023-06-10T00:03:36;7.47;;;5.00;;
76023;SDS011;64719;52.124;6.226;2023-06-10T00:06:04;5.60;;;4.25;;
76023;SDS011;64719;52.124;6.226;2023-06-10T00:08:31;8.20;;;4.72;;
76023;SDS011;64719;52.124;6.226;2023-06-10T00:10:58;7.13;;;4.50;;
76023;SDS011;64719;52.124;6.226;2023-06-10T00:13:25;7.78;;;4.57;;
76023;SDS011;64719;52.124;6.226;2023-06-10T00:15:52;7.13;;;4.68;;
76023;SDS011;64719;52.124;6.226;2023-06-10T00:18:18;5.93;;;4.60;;
76023;SDS011;64719;52.124;6.226;2023-06-10T00:20:47;7.43;;;4.20;;
76023;SDS011;64719;52.124;6.226;2023-06-10T00:23:19;6.63;;;4.63;;
76023;SDS011;64719;52.124;6.226;2023-06-10T00:25:46;7.85;;;4.30;;
76023;SDS011;64719;52.124;6.226;2023-06-10T00:28:12;7.40;;;4.25;;
76023;SDS011;64719;52.124;6.226;2023-06-10T00:30:39;7.88;;;4.65;;
76023;SDS011;64719;52.124;6.226;2023-06-10T00:33:05;8.50;;;4.40;;
76023;SDS011;64719;52.124;6.226;2023-06-10T00:35:32;5.97;;;4.30;;
76023;SDS011;64719;52.124;6.226;2023-06-10T00:37:58;5.90;;;4.22;;
76023;SDS011;64719;52.124;6.226;2023-06-10T00:40:26;7.20;;;4.75;;
76023;SDS011;64719;52.124;6.226;2023-06-10T00:42:53;7.13;;;4.50;;
76023;SDS011;64719;52.124;6.226;2023-06-10T00:45:19;8.30;;;5.10;;
76023;SDS011;64719;52.124;6.226;2023-06-10T00:47:46;7.60;;;4.35;;
76023;SDS011;64719;52.124;6.226;2023-06-10T00:50:12;6.10;;;4.30;;
76023;SDS011;64719;52.124;6.226;2023-06-10T00:52:39;6.72;;;4.13;;
76023;SDS011;64719;52.124;6.226;2023-06-10T00:55:05;6.90;;;4.22;;
76023;SDS011;64719;52.124;6.226;2023-06-10T00:57:34;6.45;;;3.85;;
76023;SDS011;64719;52.124;6.226;2023-06-10T01:00:03;7.95;;;4.30;;
76023;SDS011;64719;52.124;6.226;2023-06-10T01:02:33;7.32;;;4.22;;
76023;SDS011;64719;52.124;6.226;2023-06-10T01:04:59;6.13;;;3.80;;
76023;SDS011;64719;52.124;6.226;2023-06-10T01:07:28;7.45;;;4.50;;
76023;SDS011;64719;52.124;6.226;2023-06-10T01:10:04;8.40;;;4.15;;
76023;SDS011;64719;52.124;6.226;2023-06-10T01:12:37;7.13;;;4.45;;
76023;SDS011;64719;52.124;6.226;2023-06-10T01:15:06;6.50;;;4.18;;
76023;SDS011;64719;52.124;6.226;2023-06-10T01:17:36;8.90;;;4.80;;
76023;SDS011;64719;52.124;6.226;2023-06-10T01:20:04;7.97;;;3.95;;
76023;SDS011;64719;52.124;6.226;2023-06-10T01:22:38;7.80;;;4.35;;
76023;SDS011;64719;52.124;6.226;2023-06-10T01:25:04;10.27;;;4.38;;
76023;SDS011;64719;52.124;6.226;2023-06-10T01:27:33;8.07;;;4.03;;
76023;SDS011;64719;52.124;6.226;2023-06-10T01:30:08;6.65;;;4.00;;
76023;SDS011;64719;52.124;6.226;2023-06-10T01:32:40;6.53;;;4.07;;
76023;SDS011;64719;52.124;6.226;2023-06-10T01:35:10;7.93;;;4.38;;
76023;SDS011;64719;52.124;6.226;2023-06-10T01:37:39;6.93;;;3.88;;
76023;SDS011;64719;52.124;6.226;2023-06-10T01:40:09;9.82;;;4.32;;
76023;SDS011;64719;52.124;6.226;2023-06-10T01:42:38;7.50;;;4.20;;
76023;SDS011;64719;52.124;6.226;2023-06-10T01:45:05;7.57;;;3.90;;
76023;SDS011;64719;52.124;6.226;2023-06-10T01:47:32;9.00;;;4.22;;
76023;SDS011;64719;52.124;6.226;2023-06-10T01:49:59;6.63;;;4.40;;
76023;SDS011;64719;52.124;6.226;2023-06-10T01:52:26;5.80;;;4.03;;
76023;SDS011;64719;52.124;6.226;2023-06-10T01:54:54;6.70;;;4.10;;
76023;SDS011;64719;52.124;6.226;2023-06-10T01:57:20;7.10;;;4.13;;
76023;SDS011;64719;52.124;6.226;2023-06-10T01:59:47;9.77;;;4.25;;
76023;SDS011;64719;52.124;6.226;2023-06-10T02:02:13;7.20;;;4.30;;
76023;SDS011;64719;52.124;6.226;2023-06-10T02:04:40;7.88;;;3.97;;
76023;SDS011;64719;52.124;6.226;2023-06-10T02:07:06;8.88;;;4.13;;
76023;SDS011;64719;52.124;6.226;2023-06-10T02:09:33;6.65;;;4.00;;
76023;SDS011;64719;52.124;6.226;2023-06-10T02:12:02;8.35;;;4.35;;
76023;SDS011;64719;52.124;6.226;2023-06-10T02:14:29;8.27;;;4.50;;
76023;SDS011;64719;52.124;6.226;2023-06-10T02:16:55;8.60;;;4.30;;
76023;SDS011;64719;52.124;6.226;2023-06-10T02:19:22;9.48;;;4.57;;
76023;SDS011;64719;52.124;6.226;2023-06-10T02:21:50;8.98;;;4.45;;
76023;SDS011;64719;52.124;6.226;2023-06-10T02:24:16;8.70;;;4.03;;
76023;SDS011;64719;52.124;6.226;2023-06-10T02:26:43;8.05;;;4.85;;
76023;SDS011;64719;52.124;6.226;2023-06-10T02:29:11;9.00;;;4.80;;
76023;SDS011;64719;52.124;6.226;2023-06-10T02:31:37;10.27;;;4.40;;
76023;SDS011;64719;52.124;6.226;2023-06-10T02:34:04;9.13;;;5.07;;
76023;SDS011;64719;52.124;6.226;2023-06-10T02:36:31;7.95;;;4.65;;
76023;SDS011;64719;52.124;6.226;2023-06-10T02:38:57;8.65;;;4.80;;
76023;SDS011;64719;52.124;6.226;2023-06-10T02:41:24;9.77;;;5.38;;
76023;SDS011;64719;52.124;6.226;2023-06-10T02:43:50;9.77;;;4.70;;
76023;SDS011;64719;52.124;6.226;2023-06-10T02:46:18;9.77;;;4.78;;
76023;SDS011;64719;52.124;6.226;2023-06-10T02:48:45;8.98;;;4.90;;
76023;SDS011;64719;52.124;6.226;2023-06-10T02:51:12;8.40;;;4.57;;
76023;SDS011;64719;52.124;6.226;2023-06-10T02:53:38;9.25;;;5.00;;
76023;SDS011;64719;52.124;6.226;2023-06-10T02:56:05;7.85;;;4.85;;
76023;SDS011;64719;52.124;6.226;2023-06-10T02:58:31;7.60;;;4.50;;
76023;SDS011;64719;52.124;6.226;2023-06-10T03:00:58;8.93;;;5.13;;
76023;SDS011;64719;52.124;6.226;2023-06-10T03:03:26;7.78;;;5.13;;
76023;SDS011;64719;52.124;6.226;2023-06-10T03:05:52;10.45;;;4.70;;
76023;SDS011;64719;52.124;6.226;2023-06-10T03:08:19;8.20;;;4.70;;
76023;SDS011;64719;52.124;6.226;2023-06-10T03:10:45;8.93;;;4.60;;
76023;SDS011;64719;52.124;6.226;2023-06-10T03:13:12;9.30;;;4.63;;
76023;SDS011;64719;52.124;6.226;2023-06-10T03:15:39;9.50;;;4.47;;
76023;SDS011;64719;52.124;6.226;2023-06-10T03:18:06;9.52;;;4.57;;
76023;SDS011;64719;52.124;6.226;2023-06-10T03:20:34;9.93;;;5.18;;
76023;SDS011;64719;52.124;6.226;2023-06-10T03:23:02;13.35;;;5.57;;
76023;SDS011;64719;52.124;6.226;2023-06-10T03:25:28;8.48;;;4.88;;
76023;SDS011;64719;52.124;6.226;2023-06-10T03:27:55;10.07;;;4.93;;
76023;SDS011;64719;52.124;6.226;2023-06-10T03:30:22;8.77;;;4.88;;
76023;SDS011;64719;52.124;6.226;2023-06-10T03:32:48;7.68;;;4.50;;
76023;SDS011;64719;52.124;6.226;2023-06-10T03:35:15;11.35;;;4.30;;
76023;SDS011;64719;52.124;6.226;2023-06-10T03:37:43;9.25;;;4.60;;
76023;SDS011;64719;52.124;6.226;2023-06-10T03:40:10;8.38;;;5.18;;
76023;SDS011;64719;52.124;6.226;2023-06-10T03:42:37;8.73;;;4.72;;
76023;SDS011;64719;52.124;6.226;2023-06-10T03:45:04;10.50;;;5.18;;
76023;SDS011;64719;52.124;6.226;2023-06-10T03:47:33;8.65;;;5.00;;
76023;SDS011;64719;52.124;6.226;2023-06-10T03:49:59;9.85;;;5.20;;
76023;SDS011;64719;52.124;6.226;2023-06-10T03:52:26;8.85;;;4.85;;
76023;SDS011;64719;52.124;6.226;2023-06-10T03:54:54;9.25;;;4.75;;
76023;SDS011;64719;52.124;6.226;2023-06-10T03:57:20;8.40;;;4.68;;
76023;SDS011;64719;52.124;6.226;2023-06-10T03:59:47;10.55;;;5.45;;
76023;SDS011;64719;52.124;6.226;2023-06-10T04:02:13;7.05;;;5.28;;
76023;SDS011;64719;52.124;6.226;2023-06-10T04:04:40;12.07;;;5.22;;
76023;SDS011;64719;52.124;6.226;2023-06-10T04:07:06;10.18;;;4.88;;
76023;SDS011;64719;52.124;6.226;2023-06-10T04:09:33;12.00;;;5.30;;
76023;SDS011;64719;52.124;6.226;2023-06-10T04:12:02;6.75;;;4.80;;
76023;SDS011;64719;52.124;6.226;2023-06-10T04:14:31;7.55;;;4.75;;
76023;SDS011;64719;52.124;6.226;2023-06-10T04:16:57;10.07;;;5.13;;
76023;SDS011;64719;52.124;6.226;2023-06-10T04:19:24;8.25;;;4.53;;
76023;SDS011;64719;52.124;6.226;2023-06-10T04:21:50;8.60;;;4.88;;
76023;SDS011;64719;52.124;6.226;2023-06-10T04:24:17;7.78;;;4.85;;
76023;SDS011;64719;52.124;6.226;2023-06-10T04:26:43;9.30;;;5.60;;
76023;SDS011;64719;52.124;6.226;2023-06-10T04:29:11;8.90;;;5.13;;
76023;SDS011;64719;52.124;6.226;2023-06-10T04:31:38;8.93;;;5.10;;
76023;SDS011;64719;52.124;6.226;2023-06-10T04:34:04;9.95;;;5.20;;
76023;SDS011;64719;52.124;6.226;2023-06-10T04:36:32;8.27;;;5.30;;
76023;SDS011;64719;52.124;6.226;2023-06-10T04:38:59;10.70;;;5.25;;
76023;SDS011;64719;52.124;6.226;2023-06-10T04:43:53;8.85;;;4.55;;
76023;SDS011;64719;52.124;6.226;2023-06-10T04:46:21;6.63;;;5.00;;
76023;SDS011;64719;52.124;6.226;2023-06-10T04:48:48;6.68;;;4.63;;
76023;SDS011;64719;52.124;6.226;2023-06-10T04:51:14;8.70;;;5.22;;
76023;SDS011;64719;52.124;6.226;2023-06-10T04:53:41;6.55;;;5.07;;
76023;SDS011;64719;52.124;6.226;2023-06-10T04:56:09;7.88;;;5.53;;
76023;SDS011;64719;52.124;6.226;2023-06-10T04:58:35;7.60;;;4.55;;
76023;SDS011;64719;52.124;6.226;2023-06-10T05:01:02;8.25;;;4.75;;
76023;SDS011;64719;52.124;6.226;2023-06-10T05:03:29;9.10;;;5.05;;
76023;SDS011;64719;52.124;6.226;2023-06-10T05:05:56;10.73;;;5.05;;
76023;SDS011;64719;52.124;6.226;2023-06-10T05:08:22;8.55;;;5.18;;
76023;SDS011;64719;52.124;6.226;2023-06-10T05:10:49;8.82;;;4.68;;
76023;SDS011;64719;52.124;6.226;2023-06-10T05:13:16;7.20;;;5.03;;
76023;SDS011;64719;52.124;6.226;2023-06-10T05:15:42;7.13;;;4.47;;
76023;SDS011;64719;52.124;6.226;2023-06-10T05:18:09;6.28;;;4.75;;
76023;SDS011;64719;52.124;6.226;2023-06-10T05:20:38;8.82;;;4.88;;
76023;SDS011;64719;52.124;6.226;2023-06-10T05:23:04;7.22;;;4.90;;
76023;SDS011;64719;52.124;6.226;2023-06-10T05:25:32;9.05;;;5.40;;
76023;SDS011;64719;52.124;6.226;2023-06-10T05:27:58;8.00;;;4.60;;
76023;SDS011;64719;52.124;6.226;2023-06-10T05:30:25;6.63;;;5.00;;
76023;SDS011;64719;52.124;6.226;2023-06-10T05:32:52;8.15;;;4.72;;
76023;SDS011;64719;52.124;6.226;2023-06-10T05:35:19;6.13;;;4.50;;
76023;SDS011;64719;52.124;6.226;2023-06-10T05:37:46;5.95;;;4.65;;
76023;SDS011;64719;52.124;6.226;2023-06-10T05:40:14;7.93;;;4.63;;
76023;SDS011;64719;52.124;6.226;2023-06-10T05:42:40;10.60;;;5.35;;
76023;SDS011;64719;52.124;6.226;2023-06-10T05:45:07;8.48;;;4.93;;
76023;SDS011;64719;52.124;6.226;2023-06-10T05:47:34;9.43;;;5.10;;
76023;SDS011;64719;52.124;6.226;2023-06-10T05:50:01;8.75;;;4.68;;
76023;SDS011;64719;52.124;6.226;2023-06-10T05:52:27;8.85;;;4.78;;
76023;SDS011;64719;52.124;6.226;2023-06-10T05:54:55;7.20;;;5.03;;
76023;SDS011;64719;52.124;6.226;2023-06-10T05:57:22;5.95;;;4.97;;
76023;SDS011;64719;52.124;6.226;2023-06-10T05:59:48;8.60;;;4.95;;
76023;SDS011;64719;52.124;6.226;2023-06-10T06:02:15;8.02;;;4.72;;
76023;SDS011;64719;52.124;6.226;2023-06-10T06:04:41;7.22;;;4.45;;
76023;SDS011;64719;52.124;6.226;2023-06-10T06:07:08;7.00;;;4.63;;
76023;SDS011;64719;52.124;6.226;2023-06-10T06:09:34;7.72;;;4.65;;
76023;SDS011;64719;52.124;6.226;2023-06-10T06:12:02;6.50;;;4.47;;
76023;SDS011;64719;52.124;6.226;2023-06-10T06:14:31;6.43;;;4.75;;
76023;SDS011;64719;52.124;6.226;2023-06-10T06:16:58;8.05;;;4.90;;
76023;SDS011;64719;52.124;6.226;2023-06-10T06:19:24;6.28;;;4.53;;
76023;SDS011;64719;52.124;6.226;2023-06-10T06:21:51;7.80;;;4.72;;
76023;SDS011;64719;52.124;6.226;2023-06-10T06:24:17;6.70;;;4.32;;
76023;SDS011;64719;52.124;6.226;2023-06-10T06:26:44;6.40;;;4.65;;
76023;SDS011;64719;52.124;6.226;2023-06-10T06:29:11;8.68;;;4.65;;
76023;SDS011;64719;52.124;6.226;2023-06-10T06:31:38;6.10;;;4.65;;
76023;SDS011;64719;52.124;6.226;2023-06-10T06:34:04;6.60;;;4.30;;
76023;SDS011;64719;52.124;6.226;2023-06-10T06:36:31;6.85;;;4.63;;
76023;SDS011;64719;52.124;6.226;2023-06-10T06:38:57;5.93;;;4.28;;
76023;SDS011;64719;52.124;6.226;2023-06-10T06:41:25;8.68;;;4.55;;
76023;SDS011;64719;52.124;6.226;2023-06-10T06:43:53;8.07;;;4.88;;
76023;SDS011;64719;52.124;6.226;2023-06-10T06:46:21;6.60;;;4.50;;
76023;SDS011;64719;52.124;6.226;2023-06-10T06:48:48;7.68;;;4.40;;
76023;SDS011;64719;52.124;6.226;2023-06-10T06:51:14;6.20;;;4.22;;
76023;SDS011;64719;52.124;6.226;2023-06-10T06:53:41;8.68;;;4.22;;
76023;SDS011;64719;52.124;6.226;2023-06-10T06:56:10;9.02;;;4.38;;
76023;SDS011;64719;52.124;6.226;2023-06-10T06:58:37;6.75;;;4.30;;
76023;SDS011;64719;52.124;6.226;2023-06-10T07:01:03;6.22;;;4.30;;
76023;SDS011;64719;52.124;6.226;2023-06-10T07:03:32;6.75;;;4.00;;
76023;SDS011;64719;52.124;6.226;2023-06-10T07:05:59;6.60;;;4.35;;
76023;SDS011;64719;52.124;6.226;2023-06-10T07:08:25;5.70;;;4.25;;
76023;SDS011;64719;52.124;6.226;2023-06-10T07:10:52;7.68;;;4.45;;
76023;SDS011;64719;52.124;6.226;2023-06-10T07:15:45;5.13;;;3.97;;
76023;SDS011;64719;52.124;6.226;2023-06-10T07:18:12;5.97;;;4.07;;
76023;SDS011;64719;52.124;6.226;2023-06-10T07:20:39;5.65;;;3.88;;
76023;SDS011;64719;52.124;6.226;2023-06-10T07:23:06;5.63;;;4.20;;
76023;SDS011;64719;52.124;6.226;2023-06-10T07:25:33;5.72;;;4.05;;
76023;SDS011;64719;52.124;6.226;2023-06-10T07:27:59;7.03;;;4.35;;
76023;SDS011;64719;52.124;6.226;2023-06-10T07:30:25;6.93;;;4.28;;
76023;SDS011;64719;52.124;6.226;2023-06-10T07:32:52;5.03;;;4.20;;
76023;SDS011;64719;52.124;6.226;2023-06-10T07:35:18;8.07;;;4.22;;
76023;SDS011;64719;52.124;6.226;2023-06-10T07:37:46;5.50;;;4.18;;
76023;SDS011;64719;52.124;6.226;2023-06-10T07:40:13;6.20;;;4.10;;
76023;SDS011;64719;52.124;6.226;2023-06-10T07:42:39;5.88;;;4.10;;
76023;SDS011;64719;52.124;6.226;2023-06-10T07:45:07;6.00;;;3.95;;
76023;SDS011;64719;52.124;6.226;2023-06-10T07:47:34;5.35;;;3.75;;
76023;SDS011;64719;52.124;6.226;2023-06-10T07:52:27;7.05;;;3.63;;
76023;SDS011;64719;52.124;6.226;2023-06-10T07:54:55;7.20;;;3.88;;
76023;SDS011;64719;52.124;6.226;2023-06-10T07:57:21;6.40;;;3.75;;
76023;SDS011;64719;52.124;6.226;2023-06-10T07:59:48;4.25;;;3.20;;
76023;SDS011;64719;52.124;6.226;2023-06-10T08:02:14;4.85;;;3.80;;
76023;SDS011;64719;52.124;6.226;2023-06-10T08:04:41;5.43;;;3.50;;
76023;SDS011;64719;52.124;6.226;2023-06-10T08:07:07;6.80;;;3.70;;
76023;SDS011;64719;52.124;6.226;2023-06-10T08:09:34;5.20;;;3.65;;
76023;SDS011;64719;52.124;6.226;2023-06-10T08:12:02;6.03;;;3.75;;
76023;SDS011;64719;52.124;6.226;2023-06-10T08:14:29;5.57;;;3.70;;
76023;SDS011;64719;52.124;6.226;2023-06-10T08:16:55;5.75;;;3.47;;
76023;SDS011;64719;52.124;6.226;2023-06-10T08:19:22;5.72;;;3.67;;
76023;SDS011;64719;52.124;6.226;2023-06-10T08:21:48;5.75;;;3.50;;
76023;SDS011;64719;52.124;6.226;2023-06-10T08:24:15;6.97;;;3.55;;
76023;SDS011;64719;52.124;6.226;2023-06-10T08:26:43;5.72;;;3.10;;
76023;SDS011;64719;52.124;6.226;2023-06-10T08:29:12;4.90;;;3.47;;
76023;SDS011;64719;52.124;6.226;2023-06-10T08:31:40;5.63;;;3.40;;
76023;SDS011;64719;52.124;6.226;2023-06-10T08:34:07;4.63;;;3.40;;
76023;SDS011;64719;52.124;6.226;2023-06-10T08:36:34;4.47;;;3.40;;
76023;SDS011;64719;52.124;6.226;2023-06-10T08:39:02;5.40;;;3.70;;
76023;SDS011;64719;52.124;6.226;2023-06-10T08:41:28;4.95;;;3.72;;
76023;SDS011;64719;52.124;6.226;2023-06-10T08:43:59;5.15;;;3.38;;
76023;SDS011;64719;52.124;6.226;2023-06-10T08:46:34;4.32;;;3.10;;
76023;SDS011;64719;52.124;6.226;2023-06-10T08:49:02;5.15;;;3.20;;
76023;SDS011;64719;52.124;6.226;2023-06-10T08:51:40;4.22;;;3.00;;
76023;SDS011;64719;52.124;6.226;2023-06-10T08:54:09;4.80;;;3.22;;
76023;SDS011;64719;52.124;6.226;2023-06-10T08:56:40;5.57;;;2.83;;
76023;SDS011;64719;52.124;6.226;2023-06-10T09:01:36;5.95;;;3.40;;
76023;SDS011;64719;52.124;6.226;2023-06-10T09:04:03;5.85;;;3.75;;
76023;SDS011;64719;52.124;6.226;2023-06-10T09:06:30;5.18;;;3.20;;
76023;SDS011;64719;52.124;6.226;2023-06-10T09:08:59;4.40;;;3.40;;
76023;SDS011;64719;52.124;6.226;2023-06-10T09:11:26;4.25;;;3.05;;
76023;SDS011;64719;52.124;6.226;2023-06-10T09:13:52;5.97;;;3.60;;
76023;SDS011;64719;52.124;6.226;2023-06-10T09:16:19;4.45;;;3.17;;
76023;SDS011;64719;52.124;6.226;2023-06-10T09:18:47;5.50;;;3.00;;
76023;SDS011;64719;52.124;6.226;2023-06-10T09:21:19;5.60;;;3.47;;
76023;SDS011;64719;52.124;6.226;2023-06-10T09:23:46;5.78;;;3.45;;
76023;SDS011;64719;52.124;6.226;2023-06-10T09:26:14;4.30;;;3.10;;
76023;SDS011;64719;52.124;6.226;2023-06-10T09:28:41;5.03;;;3.42;;
76023;SDS011;64719;52.124;6.226;2023-06-10T09:31:09;5.82;;;3.30;;
76023;SDS011;64719;52.124;6.226;2023-06-10T09:33:38;3.95;;;3.17;;
76023;SDS011;64719;52.124;6.226;2023-06-10T09:36:07;6.45;;;2.97;;
76023;SDS011;64719;52.124;6.226;2023-06-10T09:38:34;5.88;;;3.35;;
76023;SDS011;64719;52.124;6.226;2023-06-10T09:41:01;5.40;;;3.25;;
76023;SDS011;64719;52.124;6.226;2023-06-10T09:43:38;5.18;;;3.00;;
76023;SDS011;64719;52.124;6.226;2023-06-10T09:46:06;3.95;;;3.10;;
76023;SDS011;64719;52.124;6.226;2023-06-10T09:48:39;5.32;;;3.33;;
76023;SDS011;64719;52.124;6.226;2023-06-10T09:51:09;5.65;;;3.47;;
76023;SDS011;64719;52.124;6.226;2023-06-10T09:53:36;6.68;;;4.00;;
76023;SDS011;64719;52.124;6.226;2023-06-10T09:58:34;7.38;;;3.35;;
76023;SDS011;64719;52.124;6.226;2023-06-10T10:01:04;6.05;;;3.25;;
76023;SDS011;64719;52.124;6.226;2023-06-10T10:03:31;5.07;;;3.17;;
76023;SDS011;64719;52.124;6.226;2023-06-10T10:05:58;6.45;;;3.33;;
76023;SDS011;64719;52.124;6.226;2023-06-10T10:08:26;4.63;;;3.10;;
76023;SDS011;64719;52.124;6.226;2023-06-10T10:10:53;6.15;;;3.30;;
76023;SDS011;64719;52.124;6.226;2023-06-10T10:13:22;4.28;;;3.47;;
76023;SDS011;64719;52.124;6.226;2023-06-10T10:15:50;6.03;;;3.80;;
76023;SDS011;64719;52.124;6.226;2023-06-10T10:18:17;5.20;;;3.60;;
76023;SDS011;64719;52.124;6.226;2023-06-10T10:20:49;9.40;;;3.88;;
76023;SDS011;64719;52.124;6.226;2023-06-10T10:23:18;5.07;;;3.53;;
76023;SDS011;64719;52.124;6.226;2023-06-10T10:25:54;6.20;;;3.60;;
76023;SDS011;64719;52.124;6.226;2023-06-10T10:28:21;4.43;;;3.47;;
76023;SDS011;64719;52.124;6.226;2023-06-10T10:30:52;5.32;;;3.63;;
76023;SDS011;64719;52.124;6.226;2023-06-10T10:33:22;5.53;;;3.28;;
76023;SDS011;64719;52.124;6.226;2023-06-10T10:35:56;5.18;;;3.40;;
76023;SDS011;64719;52.124;6.226;2023-06-10T10:38:24;3.95;;;3.33;;
76023;SDS011;64719;52.124;6.226;2023-06-10T10:40:51;3.95;;;3.28;;
76023;SDS011;64719;52.124;6.226;2023-06-10T10:43:22;4.13;;;3.17;;
76023;SDS011;64719;52.124;6.226;2023-06-10T10:45:57;4.68;;;3.05;;
76023;SDS011;64719;52.124;6.226;2023-06-10T10:48:24;5.75;;;3.65;;
76023;SDS011;64719;52.124;6.226;2023-06-10T10:50:56;6.03;;;3.33;;
76023;SDS011;64719;52.124;6.226;2023-06-10T10:53:23;4.15;;;3.42;;
76023;SDS011;64719;52.124;6.226;2023-06-10T10:55:57;5.03;;;3.45;;
76023;SDS011;64719;52.124;6.226;2023-06-10T10:58:26;4.82;;;3.45;;
76023;SDS011;64719;52.124;6.226;2023-06-10T11:00:52;6.20;;;3.83;;
76023;SDS011;64719;52.124;6.226;2023-06-10T11:03:19;4.07;;;3.13;;
76023;SDS011;64719;52.124;6.226;2023-06-10T11:05:46;4.15;;;3.70;;
76023;SDS011;64719;52.124;6.226;2023-06-10T11:08:15;5.45;;;3.53;;
76023;SDS011;64719;52.124;6.226;2023-06-10T11:11:02;4.82;;;3.25;;
76023;SDS011;64719;52.124;6.226;2023-06-10T11:13:58;5.38;;;3.33;;
76023;SDS011;64719;52.124;6.226;2023-06-10T11:16:33;5.63;;;3.45;;
76023;SDS011;64719;52.124;6.226;2023-06-10T11:19:06;5.78;;;3.55;;
76023;SDS011;64719;52.124;6.226;2023-06-10T11:21:33;4.57;;;3.35;;
76023;SDS011;64719;52.124;6.226;2023-06-10T11:24:11;5.22;;;3.60;;
76023;SDS011;64719;52.124;6.226;2023-06-10T11:26:43;5.30;;;3.40;;
76023;SDS011;64719;52.124;6.226;2023-06-10T11:29:11;5.05;;;3.72;;
76023;SDS011;64719;52.124;6.226;2023-06-10T11:31:42;7.18;;;4.20;;
76023;SDS011;64719;52.124;6.226;2023-06-10T11:34:10;5.70;;;3.58;;
76023;SDS011;64719;52.124;6.226;2023-06-10T11:36:38;5.28;;;3.70;;
76023;SDS011;64719;52.124;6.226;2023-06-10T11:39:07;5.95;;;3.50;;
76023;SDS011;64719;52.124;6.226;2023-06-10T11:41:34;5.90;;;3.90;;
76023;SDS011;64719;52.124;6.226;2023-06-10T11:44:02;4.97;;;3.13;;
76023;SDS011;64719;52.124;6.226;2023-06-10T11:46:32;4.07;;;3.47;;
76023;SDS011;64719;52.124;6.226;2023-06-10T11:48:59;4.32;;;3.55;;
76023;SDS011;64719;52.124;6.226;2023-06-10T11:51:27;3.88;;;3.25;;
76023;SDS011;64719;52.124;6.226;2023-06-10T11:53:55;4.68;;;3.50;;
76023;SDS011;64719;52.124;6.226;2023-06-10T11:58:52;8.13;;;3.60;;
76023;SDS011;64719;52.124;6.226;2023-06-10T12:01:19;5.70;;;3.10;;
76023;SDS011;64719;52.124;6.226;2023-06-10T12:03:50;5.35;;;3.40;;
76023;SDS011;64719;52.124;6.226;2023-06-10T12:06:23;6.38;;;3.75;;
76023;SDS011;64719;52.124;6.226;2023-06-10T12:08:49;5.72;;;3.53;;
76023;SDS011;64719;52.124;6.226;2023-06-10T12:11:16;6.10;;;3.60;;
76023;SDS011;64719;52.124;6.226;2023-06-10T12:13:45;4.78;;;3.40;;
76023;SDS011;64719;52.124;6.226;2023-06-10T12:16:14;5.07;;;3.75;;
76023;SDS011;64719;52.124;6.226;2023-06-10T12:18:42;7.05;;;3.30;;
76023;SDS011;64719;52.124;6.226;2023-06-10T12:21:22;5.13;;;3.55;;
76023;SDS011;64719;52.124;6.226;2023-06-10T12:24:00;5.40;;;3.33;;
76023;SDS011;64719;52.124;6.226;2023-06-10T12:26:34;5.47;;;3.63;;
76023;SDS011;64719;52.124;6.226;2023-06-10T12:29:02;4.93;;;3.83;;
76023;SDS011;64719;52.124;6.226;2023-06-10T12:31:51;3.88;;;3.20;;
76023;SDS011;64719;52.124;6.226;2023-06-10T12:34:18;4.78;;;3.63;;
76023;SDS011;64719;52.124;6.226;2023-06-10T12:36:48;5.03;;;3.78;;
76023;SDS011;64719;52.124;6.226;2023-06-10T12:39:15;5.43;;;3.55;;
76023;SDS011;64719;52.124;6.226;2023-06-10T12:41:46;7.55;;;3.75;;
76023;SDS011;64719;52.124;6.226;2023-06-10T12:44:13;4.75;;;3.40;;
76023;SDS011;64719;52.124;6.226;2023-06-10T12:46:40;4.93;;;3.50;;
76023;SDS011;64719;52.124;6.226;2023-06-10T12:49:06;5.88;;;3.28;;
76023;SDS011;64719;52.124;6.226;2023-06-10T12:51:33;6.72;;;3.78;;
76023;SDS011;64719;52.124;6.226;2023-06-10T12:54:03;4.85;;;3.58;;
76023;SDS011;64719;52.124;6.226;2023-06-10T12:56:30;5.13;;;3.42;;
76023;SDS011;64719;52.124;6.226;2023-06-10T12:58:56;4.55;;;3.42;;
76023;SDS011;64719;52.124;6.226;2023-06-10T13:01:23;5.93;;;3.88;;
76023;SDS011;64719;52.124;6.226;2023-06-10T13:03:56;4.10;;;3.70;;
76023;SDS011;64719;52.124;6.226;2023-06-10T13:06:23;5.28;;;3.90;;
76023;SDS011;64719;52.124;6.226;2023-06-10T13:08:49;5.18;;;3.85;;
76023;SDS011;64719;52.124;6.226;2023-06-10T13:11:17;4.78;;;3.78;;
76023;SDS011;64719;52.124;6.226;2023-06-10T13:13:44;5.97;;;3.47;;
76023;SDS011;64719;52.124;6.226;2023-06-10T13:16:11;4.63;;;3.58;;
76023;SDS011;64719;52.124;6.226;2023-06-10T13:18:37;5.95;;;3.75;;
76023;SDS011;64719;52.124;6.226;2023-06-10T13:21:04;4.47;;;3.47;;
76023;SDS011;64719;52.124;6.226;2023-06-10T13:23:30;4.20;;;3.80;;
76023;SDS011;64719;52.124;6.226;2023-06-10T13:25:57;5.20;;;3.67;;
76023;SDS011;64719;52.124;6.226;2023-06-10T13:28:25;5.07;;;3.80;;
76023;SDS011;64719;52.124;6.226;2023-06-10T13:30:52;5.07;;;3.90;;
76023;SDS011;64719;52.124;6.226;2023-06-10T13:33:18;4.63;;;4.07;;
76023;SDS011;64719;52.124;6.226;2023-06-10T13:35:45;6.70;;;3.63;;
76023;SDS011;64719;52.124;6.226;2023-06-10T13:38:11;4.60;;;3.45;;
76023;SDS011;64719;52.124;6.226;2023-06-10T13:40:38;5.97;;;3.88;;
76023;SDS011;64719;52.124;6.226;2023-06-10T13:43:04;5.38;;;4.07;;
76023;SDS011;64719;52.124;6.226;2023-06-10T13:45:32;5.43;;;3.70;;
76023;SDS011;64719;52.124;6.226;2023-06-10T13:47:59;6.03;;;3.95;;
76023;SDS011;64719;52.124;6.226;2023-06-10T13:50:26;5.25;;;4.10;;
76023;SDS011;64719;52.124;6.226;2023-06-10T13:52:52;5.25;;;4.22;;
76023;SDS011;64719;52.124;6.226;2023-06-10T13:55:19;6.70;;;4.18;;
76023;SDS011;64719;52.124;6.226;2023-06-10T13:57:46;6.88;;;4.38;;
76023;SDS011;64719;52.124;6.226;2023-06-10T14:00:12;5.85;;;3.42;;
76023;SDS011;64719;52.124;6.226;2023-06-10T14:05:07;5.30;;;3.70;;
76023;SDS011;64719;52.124;6.226;2023-06-10T14:07:34;6.95;;;4.18;;
76023;SDS011;64719;52.124;6.226;2023-06-10T14:10:02;6.00;;;4.28;;
76023;SDS011;64719;52.124;6.226;2023-06-10T14:12:29;5.32;;;3.90;;
76023;SDS011;64719;52.124;6.226;2023-06-10T14:14:56;6.63;;;3.88;;
76023;SDS011;64719;52.124;6.226;2023-06-10T14:17:22;6.50;;;4.00;;
76023;SDS011;64719;52.124;6.226;2023-06-10T14:19:50;5.28;;;4.05;;
76023;SDS011;64719;52.124;6.226;2023-06-10T14:22:16;5.65;;;4.47;;
76023;SDS011;64719;52.124;6.226;2023-06-10T14:24:43;4.70;;;3.85;;
76023;SDS011;64719;52.124;6.226;2023-06-10T14:27:09;5.60;;;3.80;;
76023;SDS011;64719;52.124;6.226;2023-06-10T14:29:36;4.63;;;3.85;;
76023;SDS011;64719;52.124;6.226;2023-06-10T14:32:02;6.72;;;4.13;;
76023;SDS011;64719;52.124;6.226;2023-06-10T14:34:29;4.80;;;4.10;;
76023;SDS011;64719;52.124;6.226;2023-06-10T14:37:00;4.60;;;4.10;;
76023;SDS011;64719;52.124;6.226;2023-06-10T14:39:28;5.32;;;3.70;;
76023;SDS011;64719;52.124;6.226;2023-06-10T14:41:54;5.95;;;3.85;;
76023;SDS011;64719;52.124;6.226;2023-06-10T14:44:21;5.15;;;4.00;;
76023;SDS011;64719;52.124;6.226;2023-06-10T14:46:47;6.22;;;4.10;;
76023;SDS011;64719;52.124;6.226;2023-06-10T14:49:14;4.88;;;3.95;;
76023;SDS011;64719;52.124;6.226;2023-06-10T14:51:40;6.15;;;4.20;;
76023;SDS011;64719;52.124;6.226;2023-06-10T14:54:08;5.63;;;3.78;;
76023;SDS011;64719;52.124;6.226;2023-06-10T14:56:35;5.25;;;3.75;;
76023;SDS011;64719;52.124;6.226;2023-06-10T14:59:01;5.00;;;3.55;;
76023;SDS011;64719;52.124;6.226;2023-06-10T15:01:28;5.80;;;4.13;;
76023;SDS011;64719;52.124;6.226;2023-06-10T15:03:54;5.65;;;4.20;;
76023;SDS011;64719;52.124;6.226;2023-06-10T15:06:21;5.80;;;4.25;;
76023;SDS011;64719;52.124;6.226;2023-06-10T15:08:47;5.35;;;3.88;;